Cary Plt, Maine
Current Conditions -  °F | °C
As of 1:53 PM on Thursday 23 Oct 2014 (Local Time) from KHUL Reporting Station
Light Rain Light Rain  
Wind Chill: 45°   Ceiling: 4100
Heat Index: 49°   Visibility: 8mi
Dew Point: 45°   Wind: 9mph
Humidity: 86%   Direction: 30°NNE
Pressure: 30"   Gusts: NA
Location:  45.8952°N, 67.8479°W
Report Text: KHUL 231753Z AUTO 03008KT 8SM -RA OVC041 09/07 A3000 RMK AO2 RAE06B22 SLP164 P0000 6//// T00940072 10094 20078 56020
Loading
Personal Weather Stations






























Interactive Weather Map
Tropical Storm Tracking
New forecast layout! Learn more

10-Day Weather Forecast

Advertisements
Track Severe Weather on mobile